sensor_id;sensor_type;location;lat;lon;timestamp;pressure;altitude;pressure_sealevel;temperature;humidity
11487;BME280;10510;47.942;9.442;2023-07-29T00:00:42;94359.59;;;15.57;100.00
11487;BME280;10510;47.942;9.442;2023-07-29T00:02:42;94352.06;;;15.60;100.00
11487;BME280;10510;47.942;9.442;2023-07-29T00:04:42;94356.06;;;15.63;100.00
11487;BME280;10510;47.942;9.442;2023-07-29T00:06:43;94350.38;;;15.66;100.00
11487;BME280;10510;47.942;9.442;2023-07-29T00:08:43;94348.34;;;15.68;100.00
11487;BME280;10510;47.942;9.442;2023-07-29T00:10:43;94351.78;;;15.69;100.00
11487;BME280;10510;47.942;9.442;2023-07-29T00:12:43;94354.78;;;15.72;100.00
11487;BME280;10510;47.942;9.442;2023-07-29T00:14:44;94355.13;;;15.76;100.00
11487;BME280;10510;47.942;9.442;2023-07-29T00:16:44;94358.13;;;15.79;100.00
11487;BME280;10510;47.942;9.442;2023-07-29T00:18:44;94352.41;;;15.82;100.00
11487;BME280;10510;47.942;9.442;2023-07-29T00:20:45;94358.25;;;15.84;100.00
11487;BME280;10510;47.942;9.442;2023-07-29T00:22:45;94349.78;;;15.82;100.00
11487;BME280;10510;47.942;9.442;2023-07-29T00:24:51;94341.88;;;15.82;100.00
11487;BME280;10510;47.942;9.442;2023-07-29T00:26:51;94347.28;;;15.87;100.00
11487;BME280;10510;47.942;9.442;2023-07-29T00:28:52;94341.00;;;15.88;100.00
11487;BME280;10510;47.942;9.442;2023-07-29T00:30:52;94337.91;;;15.92;100.00
11487;BME280;10510;47.942;9.442;2023-07-29T00:32:52;94327.94;;;15.94;100.00
11487;BME280;10510;47.942;9.442;2023-07-29T00:34:52;94333.00;;;15.95;100.00
11487;BME280;10510;47.942;9.442;2023-07-29T00:36:53;94324.06;;;15.96;100.00
11487;BME280;10510;47.942;9.442;2023-07-29T00:38:53;94321.06;;;15.93;100.00
11487;BME280;10510;47.942;9.442;2023-07-29T00:40:56;94323.34;;;15.89;100.00
11487;BME280;10510;47.942;9.442;2023-07-29T00:42:57;94322.56;;;15.88;100.00
11487;BME280;10510;47.942;9.442;2023-07-29T00:44:57;94325.19;;;15.88;100.00
11487;BME280;10510;47.942;9.442;2023-07-29T00:46:58;94326.56;;;15.91;100.00
11487;BME280;10510;47.942;9.442;2023-07-29T00:48:59;94314.19;;;15.92;100.00
11487;BME280;10510;47.942;9.442;2023-07-29T00:50:59;94315.81;;;15.93;100.00
11487;BME280;10510;47.942;9.442;2023-07-29T00:53:00;94311.56;;;15.92;100.00
11487;BME280;10510;47.942;9.442;2023-07-29T00:55:01;94315.22;;;15.90;100.00
11487;BME280;10510;47.942;9.442;2023-07-29T00:57:01;94314.66;;;15.88;100.00
11487;BME280;10510;47.942;9.442;2023-07-29T00:59:02;94322.31;;;15.90;100.00
11487;BME280;10510;47.942;9.442;2023-07-29T01:01:02;94330.00;;;15.92;100.00
11487;BME280;10510;47.942;9.442;2023-07-29T01:03:03;94325.31;;;15.94;100.00
11487;BME280;10510;47.942;9.442;2023-07-29T01:05:03;94326.34;;;15.93;100.00
11487;BME280;10510;47.942;9.442;2023-07-29T01:07:21;94315.22;;;15.90;100.00
11487;BME280;10510;47.942;9.442;2023-07-29T01:11:55;94328.19;;;15.92;100.00
11487;BME280;10510;47.942;9.442;2023-07-29T01:16:21;94321.22;;;15.98;100.00
11487;BME280;10510;47.942;9.442;2023-07-29T01:18:26;94317.53;;;15.99;100.00
11487;BME280;10510;47.942;9.442;2023-07-29T01:20:32;94317.88;;;16.02;100.00
11487;BME280;10510;47.942;9.442;2023-07-29T01:22:34;94319.97;;;16.00;100.00
11487;BME280;10510;47.942;9.442;2023-07-29T01:24:35;94313.88;;;16.00;100.00
11487;BME280;10510;47.942;9.442;2023-07-29T01:26:35;94312.63;;;16.02;100.00
11487;BME280;10510;47.942;9.442;2023-07-29T01:28:35;94307.69;;;16.06;100.00
11487;BME280;10510;47.942;9.442;2023-07-29T01:30:39;94312.75;;;16.07;100.00
11487;BME280;10510;47.942;9.442;2023-07-29T01:32:54;94311.38;;;16.05;100.00
11487;BME280;10510;47.942;9.442;2023-07-29T01:35:02;94317.09;;;16.02;100.00
11487;BME280;10510;47.942;9.442;2023-07-29T01:37:05;94318.94;;;16.01;100.00
11487;BME280;10510;47.942;9.442;2023-07-29T01:39:07;94320.75;;;16.01;100.00
11487;BME280;10510;47.942;9.442;2023-07-29T01:41:09;94316.28;;;16.01;100.00
11487;BME280;10510;47.942;9.442;2023-07-29T01:43:10;94312.63;;;16.02;100.00
11487;BME280;10510;47.942;9.442;2023-07-29T01:45:10;94307.00;;;15.99;100.00
11487;BME280;10510;47.942;9.442;2023-07-29T01:47:11;94306.06;;;15.93;100.00
11487;BME280;10510;47.942;9.442;2023-07-29T01:49:11;94311.13;;;15.95;100.00
11487;BME280;10510;47.942;9.442;2023-07-29T01:51:12;94314.31;;;15.97;100.00
11487;BME280;10510;47.942;9.442;2023-07-29T01:53:12;94303.78;;;15.97;100.00
11487;BME280;10510;47.942;9.442;2023-07-29T01:55:13;94306.84;;;15.94;100.00
11487;BME280;10510;47.942;9.442;2023-07-29T01:57:13;94301.47;;;15.88;100.00
11487;BME280;10510;47.942;9.442;2023-07-29T01:59:13;94300.31;;;15.84;100.00
11487;BME280;10510;47.942;9.442;2023-07-29T02:01:16;94295.94;;;15.78;100.00
11487;BME280;10510;47.942;9.442;2023-07-29T02:03:16;94297.06;;;15.71;100.00
11487;BME280;10510;47.942;9.442;2023-07-29T02:05:16;94297.47;;;15.67;100.00
11487;BME280;10510;47.942;9.442;2023-07-29T02:07:20;94296.88;;;15.65;100.00
11487;BME280;10510;47.942;9.442;2023-07-29T02:09:20;94296.88;;;15.65;100.00
11487;BME280;10510;47.942;9.442;2023-07-29T02:11:20;94289.19;;;15.64;100.00
11487;BME280;10510;47.942;9.442;2023-07-29T02:13:27;94290.81;;;15.65;100.00
11487;BME280;10510;47.942;9.442;2023-07-29T02:15:27;94294.47;;;15.64;100.00
11487;BME280;10510;47.942;9.442;2023-07-29T02:17:28;94279.09;;;15.61;100.00
11487;BME280;10510;47.942;9.442;2023-07-29T02:19:28;94275.31;;;15.57;100.00
11487;BME280;10510;47.942;9.442;2023-07-29T02:21:28;94272.34;;;15.53;100.00
11487;BME280;10510;47.942;9.442;2023-07-29T02:23:29;94278.41;;;15.54;100.00
11487;BME280;10510;47.942;9.442;2023-07-29T02:25:29;94274.38;;;15.51;100.00
11487;BME280;10510;47.942;9.442;2023-07-29T02:27:29;94274.38;;;15.51;100.00
11487;BME280;10510;47.942;9.442;2023-07-29T02:29:30;94283.31;;;15.50;100.00
11487;BME280;10510;47.942;9.442;2023-07-29T02:31:30;94277.66;;;15.47;100.00
11487;BME280;10510;47.942;9.442;2023-07-29T02:33:30;94281.31;;;15.45;100.00
11487;BME280;10510;47.942;9.442;2023-07-29T02:35:31;94277.31;;;15.43;100.00
11487;BME280;10510;47.942;9.442;2023-07-29T02:37:31;94274.31;;;15.39;100.00
11487;BME280;10510;47.942;9.442;2023-07-29T02:39:31;94272.94;;;15.37;100.00
11487;BME280;10510;47.942;9.442;2023-07-29T02:41:32;94272.13;;;15.36;100.00
11487;BME280;10510;47.942;9.442;2023-07-29T02:43:32;94263.44;;;15.36;100.00
11487;BME280;10510;47.942;9.442;2023-07-29T02:45:32;94267.31;;;15.33;100.00
11487;BME280;10510;47.942;9.442;2023-07-29T02:47:32;94261.25;;;15.33;100.00
11487;BME280;10510;47.942;9.442;2023-07-29T02:49:33;94265.69;;;15.32;100.00
11487;BME280;10510;47.942;9.442;2023-07-29T02:51:33;94269.13;;;15.33;100.00
11487;BME280;10510;47.942;9.442;2023-07-29T02:53:33;94260.66;;;15.31;100.00
11487;BME280;10510;47.942;9.442;2023-07-29T02:55:39;94259.25;;;15.28;100.00
11487;BME280;10510;47.942;9.442;2023-07-29T02:57:40;94257.22;;;15.30;100.00
11487;BME280;10510;47.942;9.442;2023-07-29T02:59:40;94265.13;;;15.30;100.00
11487;BME280;10510;47.942;9.442;2023-07-29T03:01:40;94264.88;;;15.32;100.00
11487;BME280;10510;47.942;9.442;2023-07-29T03:03:40;94269.34;;;15.31;100.00
11487;BME280;10510;47.942;9.442;2023-07-29T03:05:41;94266.94;;;15.30;100.00
11487;BME280;10510;47.942;9.442;2023-07-29T03:07:41;94265.31;;;15.29;100.00
11487;BME280;10510;47.942;9.442;2023-07-29T03:09:41;94267.97;;;15.29;100.00
11487;BME280;10510;47.942;9.442;2023-07-29T03:11:42;94282.38;;;15.26;100.00
11487;BME280;10510;47.942;9.442;2023-07-29T03:13:43;94281.78;;;15.24;100.00
11487;BME280;10510;47.942;9.442;2023-07-29T03:15:43;94282.25;;;15.21;100.00
11487;BME280;10510;47.942;9.442;2023-07-29T03:17:43;94273.50;;;15.20;100.00
11487;BME280;10510;47.942;9.442;2023-07-29T03:19:44;94280.41;;;15.21;100.00
11487;BME280;10510;47.942;9.442;2023-07-29T03:21:44;94279.38;;;15.22;100.00
11487;BME280;10510;47.942;9.442;2023-07-29T03:23:45;94282.81;;;15.23;100.00
11487;BME280;10510;47.942;9.442;2023-07-29T03:25:48;94286.47;;;15.22;100.00
11487;BME280;10510;47.942;9.442;2023-07-29T03:27:49;94277.78;;;15.21;100.00
11487;BME280;10510;47.942;9.442;2023-07-29T03:29:49;94270.09;;;15.20;100.00
11487;BME280;10510;47.942;9.442;2023-07-29T03:31:49;94273.50;;;15.20;100.00
11487;BME280;10510;47.942;9.442;2023-07-29T03:33:50;94268.84;;;15.22;100.00
11487;BME280;10510;47.942;9.442;2023-07-29T03:35:50;94270.59;;;15.29;100.00
11487;BME280;10510;47.942;9.442;2023-07-29T03:37:50;94263.50;;;15.29;100.00
11487;BME280;10510;47.942;9.442;2023-07-29T03:39:50;94260.94;;;15.22;100.00
11487;BME280;10510;47.942;9.442;2023-07-29T03:41:52;94253.84;;;15.23;100.00
11487;BME280;10510;47.942;9.442;2023-07-29T03:43:52;94247.34;;;15.26;100.00
11487;BME280;10510;47.942;9.442;2023-07-29T03:45:52;94245.50;;;15.26;100.00
11487;BME280;10510;47.942;9.442;2023-07-29T03:47:53;94249.97;;;15.26;100.00
11487;BME280;10510;47.942;9.442;2023-07-29T03:49:53;94251.59;;;15.27;100.00
11487;BME280;10510;47.942;9.442;2023-07-29T03:51:54;94259.84;;;15.30;100.00
11487;BME280;10510;47.942;9.442;2023-07-29T03:53:54;94262.03;;;15.33;100.00
11487;BME280;10510;47.942;9.442;2023-07-29T03:55:54;94253.09;;;15.34;100.00
11487;BME280;10510;47.942;9.442;2023-07-29T03:57:56;94248.44;;;15.36;100.00
11487;BME280;10510;47.942;9.442;2023-07-29T03:59:56;94254.75;;;15.35;100.00
11487;BME280;10510;47.942;9.442;2023-07-29T04:01:57;94247.84;;;15.34;100.00
11487;BME280;10510;47.942;9.442;2023-07-29T04:03:58;94238.13;;;15.35;100.00
11487;BME280;10510;47.942;9.442;2023-07-29T04:05:58;94242.13;;;15.37;100.00
11487;BME280;10510;47.942;9.442;2023-07-29T04:07:59;94246.84;;;15.35;100.00
11487;BME280;10510;47.942;9.442;2023-07-29T04:09:59;94246.59;;;15.37;100.00
11487;BME280;10510;47.942;9.442;2023-07-29T04:12:01;94251.41;;;15.40;100.00
11487;BME280;10510;47.942;9.442;2023-07-29T04:14:01;94242.28;;;15.42;100.00
11487;BME280;10510;47.942;9.442;2023-07-29T04:16:01;94248.59;;;15.41;100.00
11487;BME280;10510;47.942;9.442;2023-07-29T04:18:02;94259.31;;;15.40;100.00
11487;BME280;10510;47.942;9.442;2023-07-29T04:20:02;94276.50;;;15.42;100.00
11487;BME280;10510;47.942;9.442;2023-07-29T04:22:03;94291.06;;;15.45;100.00
11487;BME280;10510;47.942;9.442;2023-07-29T04:24:03;94289.44;;;15.44;100.00
11487;BME280;10510;47.942;9.442;2023-07-29T04:26:04;94295.16;;;15.41;100.00
11487;BME280;10510;47.942;9.442;2023-07-29T04:28:04;94298.59;;;15.41;100.00
11487;BME280;10510;47.942;9.442;2023-07-29T04:30:05;94292.31;;;15.42;100.00
11487;BME280;10510;47.942;9.442;2023-07-29T04:32:06;94292.44;;;15.48;100.00
11487;BME280;10510;47.942;9.442;2023-07-29T04:34:06;94286.50;;;15.52;100.00
11487;BME280;10510;47.942;9.442;2023-07-29T04:36:06;94276.31;;;15.56;100.00
11487;BME280;10510;47.942;9.442;2023-07-29T04:38:07;94276.47;;;15.61;100.00
11487;BME280;10510;47.942;9.442;2023-07-29T04:40:07;94269.38;;;15.61;100.00
11487;BME280;10510;47.942;9.442;2023-07-29T04:42:08;94277.72;;;15.58;100.00
11487;BME280;10510;47.942;9.442;2023-07-29T04:44:08;94279.91;;;15.61;100.00
11487;BME280;10510;47.942;9.442;2023-07-29T04:46:08;94282.91;;;15.65;100.00
11487;BME280;10510;47.942;9.442;2023-07-29T04:48:08;94277.41;;;15.66;100.00
11487;BME280;10510;47.942;9.442;2023-07-29T04:50:09;94280.66;;;15.69;100.00
11487;BME280;10510;47.942;9.442;2023-07-29T04:52:09;94281.00;;;15.72;100.00
11487;BME280;10510;47.942;9.442;2023-07-29T04:54:09;94281.59;;;15.74;100.00
11487;BME280;10510;47.942;9.442;2023-07-29T04:56:10;94277.94;;;15.75;100.00
11487;BME280;10510;47.942;9.442;2023-07-29T04:58:10;94278.06;;;15.80;100.00
11487;BME280;10510;47.942;9.442;2023-07-29T05:00:11;94285.06;;;15.86;100.00
11487;BME280;10510;47.942;9.442;2023-07-29T05:02:11;94286.22;;;15.90;100.00
11487;BME280;10510;47.942;9.442;2023-07-29T05:04:11;94281.31;;;15.94;100.00
11487;BME280;10510;47.942;9.442;2023-07-29T05:06:11;94294.06;;;15.97;100.00
11487;BME280;10510;47.942;9.442;2023-07-29T05:08:12;94300.94;;;15.98;100.00
11487;BME280;10510;47.942;9.442;2023-07-29T05:10:12;94311.81;;;16.02;100.00
11487;BME280;10510;47.942;9.442;2023-07-29T05:12:12;94308.97;;;16.03;100.00
11487;BME280;10510;47.942;9.442;2023-07-29T05:14:13;94307.13;;;16.04;100.00
11487;BME280;10510;47.942;9.442;2023-07-29T05:16:14;94305.66;;;16.08;100.00
11487;BME280;10510;47.942;9.442;2023-07-29T05:18:15;94304.97;;;16.12;100.00
11487;BME280;10510;47.942;9.442;2023-07-29T05:20:16;94304.28;;;16.17;100.00
11487;BME280;10510;47.942;9.442;2023-07-29T05:22:16;94299.16;;;16.22;100.00
11487;BME280;10510;47.942;9.442;2023-07-29T05:24:16;94284.25;;;16.28;100.00
11487;BME280;10510;47.942;9.442;2023-07-29T05:26:16;94281.19;;;16.31;100.00
11487;BME280;10510;47.942;9.442;2023-07-29T05:28:17;94290.22;;;16.35;100.00
11487;BME280;10510;47.942;9.442;2023-07-29T05:30:17;94288.97;;;16.38;100.00
11487;BME280;10510;47.942;9.442;2023-07-29T05:32:17;94289.31;;;16.41;100.00
11487;BME280;10510;47.942;9.442;2023-07-29T05:34:17;94286.47;;;16.43;100.00
11487;BME280;10510;47.942;9.442;2023-07-29T05:36:18;94293.34;;;16.44;100.00
11487;BME280;10510;47.942;9.442;2023-07-29T05:38:18;94294.16;;;16.44;100.00
11487;BME280;10510;47.942;9.442;2023-07-29T05:40:18;94293.13;;;16.45;100.00
11487;BME280;10510;47.942;9.442;2023-07-29T05:42:18;94294.25;;;16.49;100.00
11487;BME280;10510;47.942;9.442;2023-07-29T05:44:19;94301.38;;;16.61;100.00
11487;BME280;10510;47.942;9.442;2023-07-29T05:46:19;94303.00;;;16.73;100.00
11487;BME280;10510;47.942;9.442;2023-07-29T05:48:20;94302.13;;;16.79;100.00
11487;BME280;10510;47.942;9.442;2023-07-29T05:50:20;94308.66;;;16.89;100.00
11487;BME280;10510;47.942;9.442;2023-07-29T05:52:20;94303.47;;;16.94;100.00
11487;BME280;10510;47.942;9.442;2023-07-29T05:54:20;94307.50;;;16.96;100.00
11487;BME280;10510;47.942;9.442;2023-07-29T05:56:21;94305.19;;;17.00;100.00
11487;BME280;10510;47.942;9.442;2023-07-29T05:58:21;94306.34;;;17.04;100.00
11487;BME280;10510;47.942;9.442;2023-07-29T06:00:21;94318.63;;;17.10;100.00
11487;BME280;10510;47.942;9.442;2023-07-29T06:02:21;94314.47;;;17.14;100.00
11487;BME280;10510;47.942;9.442;2023-07-29T06:04:22;94316.66;;;17.17;100.00
11487;BME280;10510;47.942;9.442;2023-07-29T06:06:22;94318.03;;;17.20;100.00
11487;BME280;10510;47.942;9.442;2023-07-29T06:08:23;94317.25;;;17.19;100.00
11487;BME280;10510;47.942;9.442;2023-07-29T06:10:23;94316.78;;;17.22;100.00
11487;BME280;10510;47.942;9.442;2023-07-29T06:12:24;94310.00;;;17.27;100.00
11487;BME280;10510;47.942;9.442;2023-07-29T06:14:24;94311.81;;;17.26;100.00
11487;BME280;10510;47.942;9.442;2023-07-29T06:16:24;94312.66;;;17.27;100.00
11487;BME280;10510;47.942;9.442;2023-07-29T06:18:25;94307.34;;;19.86;100.00
11487;BME280;10510;47.942;9.442;2023-07-29T06:20:25;94309.50;;;22.80;100.00
11487;BME280;10510;47.942;9.442;2023-07-29T06:22:25;94306.56;;;22.92;100.00
11487;BME280;10510;47.942;9.442;2023-07-29T06:24:26;94306.34;;;23.89;100.00
11487;BME280;10510;47.942;9.442;2023-07-29T06:26:26;94294.94;;;24.96;100.00
11487;BME280;10510;47.942;9.442;2023-07-29T06:28:26;94297.06;;;26.00;100.00
11487;BME280;10510;47.942;9.442;2023-07-29T06:30:26;94280.88;;;26.81;100.00
11487;BME280;10510;47.942;9.442;2023-07-29T06:32:27;94284.09;;;27.30;100.00
11487;BME280;10510;47.942;9.442;2023-07-29T06:34:27;94287.28;;;27.73;100.00
11487;BME280;10510;47.942;9.442;2023-07-29T06:36:27;94286.69;;;28.54;100.00
11487;BME280;10510;47.942;9.442;2023-07-29T06:38:28;94280.78;;;28.97;100.00
11487;BME280;10510;47.942;9.442;2023-07-29T06:40:28;94287.84;;;29.07;100.00
11487;BME280;10510;47.942;9.442;2023-07-29T06:42:28;94283.06;;;28.59;100.00
11487;BME280;10510;47.942;9.442;2023-07-29T06:44:28;94277.16;;;27.56;100.00
11487;BME280;10510;47.942;9.442;2023-07-29T06:46:29;94281.28;;;26.37;100.00
11487;BME280;10510;47.942;9.442;2023-07-29T06:48:29;94274.19;;;25.65;100.00
11487;BME280;10510;47.942;9.442;2023-07-29T06:50:29;94273.09;;;26.66;100.00
11487;BME280;10510;47.942;9.442;2023-07-29T06:52:30;94277.53;;;27.50;100.00
11487;BME280;10510;47.942;9.442;2023-07-29T06:54:30;94275.19;;;27.62;100.00
11487;BME280;10510;47.942;9.442;2023-07-29T06:56:30;94279.72;;;28.03;100.00
11487;BME280;10510;47.942;9.442;2023-07-29T06:58:30;94280.19;;;25.57;100.00
11487;BME280;10510;47.942;9.442;2023-07-29T07:00:31;94283.13;;;23.89;100.00
11487;BME280;10510;47.942;9.442;2023-07-29T07:02:31;94285.50;;;23.10;100.00
11487;BME280;10510;47.942;9.442;2023-07-29T07:04:31;94285.50;;;24.35;100.00
11487;BME280;10510;47.942;9.442;2023-07-29T07:06:31;94280.75;;;25.30;100.00
11487;BME280;10510;47.942;9.442;2023-07-29T07:08:32;94287.97;;;25.77;100.00
11487;BME280;10510;47.942;9.442;2023-07-29T07:10:32;94287.25;;;25.48;100.00
11487;BME280;10510;47.942;9.442;2023-07-29T07:12:33;94291.44;;;24.66;100.00
11487;BME280;10510;47.942;9.442;2023-07-29T07:14:34;94293.25;;;23.92;100.00
11487;BME280;10510;47.942;9.442;2023-07-29T07:16:34;94293.69;;;24.88;100.00
11487;BME280;10510;47.942;9.442;2023-07-29T07:18:36;94281.78;;;23.92;100.00
11487;BME280;10510;47.942;9.442;2023-07-29T07:20:37;94286.03;;;23.12;100.00
11487;BME280;10510;47.942;9.442;2023-07-29T07:22:37;94293.50;;;23.10;100.00
11487;BME280;10510;47.942;9.442;2023-07-29T07:24:37;94277.81;;;22.68;100.00
11487;BME280;10510;47.942;9.442;2023-07-29T07:26:38;94279.38;;;22.23;100.00
11487;BME280;10510;47.942;9.442;2023-07-29T07:28:38;94275.53;;;21.88;100.00
11487;BME280;10510;47.942;9.442;2023-07-29T07:30:41;94279.97;;;21.57;100.00
11487;BME280;10510;47.942;9.442;2023-07-29T07:32:41;94291.63;;;21.46;100.00
11487;BME280;10510;47.942;9.442;2023-07-29T07:34:42;94292.78;;;21.70;100.00
11487;BME280;10510;47.942;9.442;2023-07-29T07:36:42;94290.31;;;22.42;100.00
11487;BME280;10510;47.942;9.442;2023-07-29T07:38:42;94300.97;;;23.03;100.00
11487;BME280;10510;47.942;9.442;2023-07-29T07:40:52;94300.31;;;23.52;100.00
11487;BME280;10510;47.942;9.442;2023-07-29T07:42:53;94298.59;;;23.92;100.00
11487;BME280;10510;47.942;9.442;2023-07-29T07:44:53;94298.13;;;23.75;100.00
11487;BME280;10510;47.942;9.442;2023-07-29T07:46:53;94288.13;;;24.40;100.00
11487;BME280;10510;47.942;9.442;2023-07-29T07:48:54;94283.97;;;24.98;100.00
11487;BME280;10510;47.942;9.442;2023-07-29T07:50:54;94285.81;;;25.31;100.00
11487;BME280;10510;47.942;9.442;2023-07-29T07:52:54;94288.13;;;24.40;100.00
11487;BME280;10510;47.942;9.442;2023-07-29T07:54:55;94290.19;;;23.54;100.00
11487;BME280;10510;47.942;9.442;2023-07-29T07:56:55;94292.94;;;23.24;100.00
11487;BME280;10510;47.942;9.442;2023-07-29T07:58:55;94293.38;;;23.56;100.00
11487;BME280;10510;47.942;9.442;2023-07-29T08:01:05;94292.13;;;23.23;100.00
11487;BME280;10510;47.942;9.442;2023-07-29T08:03:06;94295.34;;;23.15;100.00
11487;BME280;10510;47.942;9.442;2023-07-29T08:05:06;94296.59;;;23.43;100.00
11487;BME280;10510;47.942;9.442;2023-07-29T08:07:07;94301.44;;;23.36;100.00
11487;BME280;10510;47.942;9.442;2023-07-29T08:09:07;94297.47;;;23.18;100.00
11487;BME280;10510;47.942;9.442;2023-07-29T08:11:07;94299.59;;;22.90;100.00
11487;BME280;10510;47.942;9.442;2023-07-29T08:13:08;94290.81;;;22.85;100.00
11487;BME280;10510;47.942;9.442;2023-07-29T08:15:08;94295.06;;;23.11;100.00
11487;BME280;10510;47.942;9.442;2023-07-29T08:17:09;94297.47;;;23.18;100.00
11487;BME280;10510;47.942;9.442;2023-07-29T08:19:09;94303.56;;;23.39;100.00
11487;BME280;10510;47.942;9.442;2023-07-29T08:21:09;94298.28;;;23.24;100.00
11487;BME280;10510;47.942;9.442;2023-07-29T08:23:10;94301.44;;;23.36;100.00
11487;BME280;10510;47.942;9.442;2023-07-29T08:25:10;94306.44;;;23.53;100.00
11487;BME280;10510;47.942;9.442;2023-07-29T08:27:10;94298.84;;;23.91;100.00
11487;BME280;10510;47.942;9.442;2023-07-29T08:29:11;94297.84;;;24.26;100.00
11487;BME280;10510;47.942;9.442;2023-07-29T08:31:12;94290.16;;;24.59;100.00
11487;BME280;10510;47.942;9.442;2023-07-29T08:33:12;94288.34;;;24.88;100.00
11487;BME280;10510;47.942;9.442;2023-07-29T08:35:12;94282.06;;;25.03;100.00
11487;BME280;10510;47.942;9.442;2023-07-29T08:37:13;94279.38;;;25.03;100.00
11487;BME280;10510;47.942;9.442;2023-07-29T08:39:13;94278.44;;;24.89;100.00
11487;BME280;10510;47.942;9.442;2023-07-29T08:41:31;94275.50;;;24.85;100.00
11487;BME280;10510;47.942;9.442;2023-07-29T08:43:34;94280.78;;;24.66;100.00
11487;BME280;10510;47.942;9.442;2023-07-29T08:45:36;94281.56;;;24.67;100.00
11487;BME280;10510;47.942;9.442;2023-07-29T08:47:37;94287.22;;;24.60;100.00
11487;BME280;10510;47.942;9.442;2023-07-29T08:49:38;94284.63;;;24.84;100.00
11487;BME280;10510;47.942;9.442;2023-07-29T08:51:39;94287.53;;;25.17;100.00
11487;BME280;10510;47.942;9.442;2023-07-29T08:53:42;94275.66;;;25.28;100.00
11487;BME280;10510;47.942;9.442;2023-07-29T08:55:43;94278.16;;;25.44;100.00
11487;BME280;10510;47.942;9.442;2023-07-29T08:57:43;94278.25;;;25.63;100.00
11487;BME280;10510;47.942;9.442;2023-07-29T08:59:44;94276.94;;;26.03;100.00
11487;BME280;10510;47.942;9.442;2023-07-29T09:01:44;94273.91;;;26.28;100.00
11487;BME280;10510;47.942;9.442;2023-07-29T09:03:45;94278.84;;;26.21;100.00
11487;BME280;10510;47.942;9.442;2023-07-29T09:05:45;94279.69;;;25.98;100.00
11487;BME280;10510;47.942;9.442;2023-07-29T09:07:47;94279.56;;;26.27;100.00
11487;BME280;10510;47.942;9.442;2023-07-29T09:09:48;94281.56;;;26.35;100.00
11487;BME280;10510;47.942;9.442;2023-07-29T09:11:48;94276.44;;;26.58;100.00
11487;BME280;10510;47.942;9.442;2023-07-29T09:13:48;94287.00;;;26.49;100.00
11487;BME280;10510;47.942;9.442;2023-07-29T09:15:49;94278.59;;;26.56;100.00
11487;BME280;10510;47.942;9.442;2023-07-29T09:17:49;94292.38;;;26.68;100.00
11487;BME280;10510;47.942;9.442;2023-07-29T09:19:50;94282.06;;;26.75;100.00
11487;BME280;10510;47.942;9.442;2023-07-29T09:21:51;94282.06;;;26.75;100.00
11487;BME280;10510;47.942;9.442;2023-07-29T09:23:51;94281.59;;;26.87;100.00
11487;BME280;10510;47.942;9.442;2023-07-29T09:26:00;94298.84;;;27.13;100.00
11487;BME280;10510;47.942;9.442;2023-07-29T09:28:01;94285.38;;;27.18;100.00
11487;BME280;10510;47.942;9.442;2023-07-29T09:30:15;94279.72;;;27.34;100.00
11487;BME280;10510;47.942;9.442;2023-07-29T09:32:23;94280.00;;;27.32;100.00
11487;BME280;10510;47.942;9.442;2023-07-29T09:34:24;94273.81;;;27.04;100.00
11487;BME280;10510;47.942;9.442;2023-07-29T09:36:24;94274.47;;;26.96;100.00
11487;BME280;10510;47.942;9.442;2023-07-29T09:38:27;94269.88;;;27.15;100.00
11487;BME280;10510;47.942;9.442;2023-07-29T09:40:34;94268.34;;;27.09;100.00
11487;BME280;10510;47.942;9.442;2023-07-29T09:42:36;94260.28;;;26.95;100.00
11487;BME280;10510;47.942;9.442;2023-07-29T09:44:36;94268.66;;;26.75;100.00
11487;BME280;10510;47.942;9.442;2023-07-29T09:46:37;94266.31;;;26.87;100.00
11487;BME280;10510;47.942;9.442;2023-07-29T09:48:38;94262.72;;;26.78;100.00
11487;BME280;10510;47.942;9.442;2023-07-29T09:50:38;94264.44;;;26.55;100.00
11487;BME280;10510;47.942;9.442;2023-07-29T09:52:39;94265.28;;;26.32;100.00
11487;BME280;10510;47.942;9.442;2023-07-29T09:54:39;94268.09;;;26.02;100.00
11487;BME280;10510;47.942;9.442;2023-07-29T09:56:41;94265.75;;;26.01;100.00
11487;BME280;10510;47.942;9.442;2023-07-29T09:58:44;94268.09;;;25.83;100.00
11487;BME280;10510;47.942;9.442;2023-07-29T10:00:46;94259.66;;;25.95;100.00
11487;BME280;10510;47.942;9.442;2023-07-29T10:02:47;94261.53;;;25.95;100.00
11487;BME280;10510;47.942;9.442;2023-07-29T10:04:48;94260.03;;;26.08;100.00
11487;BME280;10510;47.942;9.442;2023-07-29T10:06:49;94256.25;;;26.09;100.00
11487;BME280;10510;47.942;9.442;2023-07-29T10:08:50;94259.34;;;25.97;100.00
11487;BME280;10510;47.942;9.442;2023-07-29T10:10:51;94261.53;;;25.95;100.00
11487;BME280;10510;47.942;9.442;2023-07-29T10:12:53;94260.19;;;25.97;100.00
11487;BME280;10510;47.942;9.442;2023-07-29T10:14:55;94263.28;;;26.04;100.00
11487;BME280;10510;47.942;9.442;2023-07-29T10:16:55;94244.31;;;26.01;100.00
11487;BME280;10510;47.942;9.442;2023-07-29T10:18:57;94242.94;;;26.22;100.00
11487;BME280;10510;47.942;9.442;2023-07-29T10:20:59;94241.97;;;26.32;100.00
11487;BME280;10510;47.942;9.442;2023-07-29T10:23:01;94246.31;;;26.66;100.00
11487;BME280;10510;47.942;9.442;2023-07-29T10:25:25;94238.78;;;26.68;100.00
11487;BME280;10510;47.942;9.442;2023-07-29T10:28:08;94245.53;;;26.65;100.00
11487;BME280;10510;47.942;9.442;2023-07-29T10:30:01;94244.59;;;26.89;100.00
11487;BME280;10510;47.942;9.442;2023-07-29T10:32:02;94236.81;;;27.20;100.00
11487;BME280;10510;47.942;9.442;2023-07-29T10:34:04;94245.09;;;27.05;100.00
11487;BME280;10510;47.942;9.442;2023-07-29T10:36:05;94244.50;;;26.61;100.00
11487;BME280;10510;47.942;9.442;2023-07-29T10:38:05;94248.59;;;26.21;100.00